Conaway, Virginia
Current Conditions -  °F | °C
As of 10:55 AM on Friday 21 Nov 2014 (Local Time) from KPBX Reporting Station
Clear Clear  
Wind Chill: 26°   Ceiling: Unl
Heat Index: 31°   Visibility: 10mi
Dew Point: 17°   Wind: 5mph
Humidity: 55%   Direction: 270°W
Pressure: 30.48"   Gusts: NA
Location:  37.3176°N, 82.2271°W
Report Text: KPBX 211555Z AUTO 27004KT 10SM CLR M01/M09 A3048 RMK AO2 T10061086
Loading
Personal Weather Stations






























Interactive Weather Map New forecast layout! Learn more

10-Day Weather Forecast

Advertisements
Track Severe Weather on mobile